Time;durP1;ratioP1;P1;durP2;ratioP2;P2;SDS_P1;SDS_P2;PMS_P1;PMS_P2;Temp;Humidity;BMP_temperature;BMP_pressure;BME280_temperature;BME280_humidity;BME280_pressure;Samples;Min_cycle;Max_cycle;Signal;HPM_P1;HPM_P2
2023/07/08 00:00:58;;;;;;;10.75;8.77;;;22.10;99.90;;;;;;5052314;28;20236;-61
2023/07/08 00:03:26;;;;;;;12.40;8.52;;;22.10;99.90;;;;;;5068284;28;20974;-61
2023/07/08 00:05:55;;;;;;;11.45;9.07;;;22.10;99.90;;;;;;5065612;28;20229;-61
2023/07/08 00:08:23;;;;;;;15.80;9.20;;;22.10;99.90;;;;;;5065302;28;20283;-60
2023/07/08 00:10:53;;;;;;;10.95;8.85;;;22.10;99.90;;;;;;5051671;28;20228;-59
2023/07/08 00:13:20;;;;;;;10.95;9.00;;;22.10;99.90;;;;;;5062934;28;20227;-61
2023/07/08 00:15:48;;;;;;;13.65;9.65;;;22.00;99.90;;;;;;5052438;28;20342;-61
2023/07/08 00:18:17;;;;;;;10.02;7.95;;;22.00;99.90;;;;;;5052464;28;20229;-61
2023/07/08 00:20:46;;;;;;;10.13;8.40;;;22.00;99.90;;;;;;5052593;28;20202;-61
2023/07/08 00:23:14;;;;;;;13.10;8.60;;;22.00;99.90;;;;;;5052502;28;20228;-60
2023/07/08 00:25:42;;;;;;;11.93;8.15;;;22.00;99.90;;;;;;5051793;28;20572;-61
2023/07/08 00:28:12;;;;;;;11.88;9.05;;;22.00;99.90;;;;;;5051317;28;20677;-60
2023/07/08 00:30:39;;;;;;;10.35;7.47;;;21.90;99.90;;;;;;5050195;28;20235;-61
2023/07/08 00:33:07;;;;;;;10.68;8.55;;;21.90;99.90;;;;;;5048061;28;20301;-61
2023/07/08 00:35:37;;;;;;;8.88;7.88;;;21.90;99.90;;;;;;5049469;28;20218;-60
2023/07/08 00:38:12;;;;;;;9.82;7.35;;;21.90;99.90;;;;;;5051885;28;20197;-60
2023/07/08 00:40:40;;;;;;;13.13;8.10;;;21.90;99.90;;;;;;5036759;28;20292;-60
2023/07/08 00:43:09;;;;;;;11.70;7.90;;;21.80;99.90;;;;;;5050329;28;20201;-61
2023/07/08 00:45:41;;;;;;;10.43;7.95;;;21.80;99.90;;;;;;5042839;28;20222;-60
2023/07/08 00:48:31;;;;;;;11.45;7.68;;;21.80;99.90;;;;;;5052088;28;20229;-61
2023/07/08 00:50:58;;;;;;;8.43;7.22;;;21.70;99.90;;;;;;5050692;28;20278;-61
2023/07/08 00:53:28;;;;;;;9.70;6.88;;;21.70;99.90;;;;;;5050777;28;20225;-61
2023/07/08 00:55:58;;;;;;;13.60;7.20;;;21.70;99.90;;;;;;5051566;28;20217;-61
2023/07/08 00:58:30;;;;;;;10.00;7.00;;;21.70;99.90;;;;;;5051928;28;20677;-60
2023/07/08 01:00:59;;;;;;;8.95;7.13;;;21.70;99.90;;;;;;5050506;28;20241;-61
2023/07/08 01:03:28;;;;;;;8.88;7.45;;;21.70;99.90;;;;;;5051526;28;20204;-61
2023/07/08 01:05:59;;;;;;;8.63;7.72;;;21.70;99.90;;;;;;5051281;28;20231;-60
2023/07/08 01:08:30;;;;;;;9.30;7.70;;;21.70;99.90;;;;;;5051557;28;20225;-60
2023/07/08 01:11:01;;;;;;;8.15;6.97;;;21.70;99.90;;;;;;5051555;28;20201;-61
2023/07/08 01:13:31;;;;;;;9.07;6.60;;;21.60;99.90;;;;;;5051681;28;20221;-60
2023/07/08 01:16:01;;;;;;;11.88;6.90;;;21.60;99.90;;;;;;5051346;28;20240;-60
2023/07/08 01:18:29;;;;;;;7.72;6.85;;;21.60;99.90;;;;;;5050485;28;20202;-60
2023/07/08 01:21:00;;;;;;;10.43;6.85;;;21.50;99.90;;;;;;5051275;28;20198;-60
2023/07/08 01:23:30;;;;;;;11.02;6.70;;;21.50;99.90;;;;;;5051522;28;20193;-61
2023/07/08 01:25:58;;;;;;;10.95;6.80;;;21.50;99.90;;;;;;5048137;28;20311;-60
2023/07/08 01:28:26;;;;;;;8.82;6.80;;;21.50;99.90;;;;;;5051284;28;20209;-60
2023/07/08 01:30:54;;;;;;;8.77;6.53;;;21.50;99.90;;;;;;5050700;28;20201;-60
2023/07/08 01:33:24;;;;;;;8.27;7.38;;;21.50;99.90;;;;;;5049564;28;20264;-61
2023/07/08 01:35:52;;;;;;;8.52;6.30;;;21.50;99.90;;;;;;5051031;28;20308;-60
2023/07/08 01:38:23;;;;;;;8.77;6.45;;;21.50;99.90;;;;;;5051195;28;20301;-60
2023/07/08 01:40:53;;;;;;;7.57;6.25;;;21.50;99.90;;;;;;5051234;28;20263;-61
2023/07/08 01:43:21;;;;;;;10.35;6.53;;;21.50;99.90;;;;;;5050959;28;20701;-60
2023/07/08 01:45:49;;;;;;;6.90;6.20;;;21.50;99.90;;;;;;5050908;28;20257;-61
2023/07/08 01:48:20;;;;;;;7.85;6.07;;;21.50;99.90;;;;;;5050132;28;20657;-61
2023/07/08 01:50:49;;;;;;;8.13;6.25;;;21.50;99.90;;;;;;5050896;28;20201;-60
2023/07/08 01:53:21;;;;;;;11.10;6.35;;;21.50;99.90;;;;;;5051005;28;20233;-61
2023/07/08 01:55:49;;;;;;;7.90;6.50;;;21.50;99.90;;;;;;5050392;28;20287;-60
2023/07/08 01:58:18;;;;;;;7.70;6.75;;;21.40;99.90;;;;;;5051198;28;20224;-60
2023/07/08 02:00:48;;;;;;;7.72;6.25;;;21.40;99.90;;;;;;5048821;28;20244;-60
2023/07/08 02:03:16;;;;;;;7.15;6.35;;;21.30;99.90;;;;;;5050530;28;20204;-61
2023/07/08 02:05:44;;;;;;;10.07;6.55;;;21.30;99.90;;;;;;5050794;28;20225;-60
2023/07/08 02:08:11;;;;;;;7.47;6.68;;;21.20;99.90;;;;;;5050282;28;20221;-59
2023/07/08 02:10:40;;;;;;;7.60;6.82;;;21.20;99.90;;;;;;5051028;28;20354;-60
2023/07/08 02:13:08;;;;;;;7.75;6.90;;;21.10;99.90;;;;;;5051066;28;20205;-60
2023/07/08 02:15:37;;;;;;;8.20;6.82;;;21.10;99.90;;;;;;5048995;28;20308;-60
2023/07/08 02:18:05;;;;;;;12.38;6.40;;;21.10;99.90;;;;;;5050718;28;20642;-59
2023/07/08 02:20:33;;;;;;;8.13;6.43;;;21.10;99.90;;;;;;5050743;28;20286;-60
2023/07/08 02:23:01;;;;;;;9.20;6.38;;;21.00;99.90;;;;;;5050671;28;20582;-60
2023/07/08 02:25:29;;;;;;;10.07;6.97;;;21.10;99.90;;;;;;5050620;28;20249;-60
2023/07/08 02:27:57;;;;;;;9.68;7.03;;;21.00;99.90;;;;;;5050202;28;20300;-59
2023/07/08 02:30:25;;;;;;;8.45;6.40;;;21.00;99.90;;;;;;5050227;28;20271;-60
2023/07/08 02:32:57;;;;;;;8.98;6.45;;;21.00;99.90;;;;;;5050749;28;20202;-60
2023/07/08 02:35:26;;;;;;;6.15;5.63;;;21.00;99.90;;;;;;5045526;28;20221;-60
2023/07/08 02:37:54;;;;;;;10.75;6.80;;;20.90;99.90;;;;;;5054537;28;20221;-60
2023/07/08 02:40:22;;;;;;;7.45;6.22;;;20.90;99.90;;;;;;5054330;28;20241;-60
2023/07/08 02:42:50;;;;;;;10.27;6.72;;;20.80;99.90;;;;;;5049807;28;20264;-60
2023/07/08 02:45:18;;;;;;;10.82;7.38;;;20.70;99.90;;;;;;5053888;28;20297;-60
2023/07/08 02:47:46;;;;;;;8.40;6.47;;;20.60;99.90;;;;;;5054351;28;20234;-59
2023/07/08 02:50:17;;;;;;;11.32;6.88;;;20.60;99.90;;;;;;5054242;28;20213;-60
2023/07/08 02:52:44;;;;;;;8.18;6.25;;;20.50;99.90;;;;;;5054257;28;20205;-60
2023/07/08 02:55:12;;;;;;;7.43;6.70;;;20.50;99.90;;;;;;5053703;28;20276;-60
2023/07/08 02:57:40;;;;;;;14.48;6.50;;;20.40;99.90;;;;;;5052616;28;20255;-60
2023/07/08 03:00:08;;;;;;;8.52;6.43;;;20.40;99.90;;;;;;5053965;28;20197;-61
2023/07/08 03:02:36;;;;;;;8.27;5.85;;;20.30;99.90;;;;;;5053633;28;20205;-59
2023/07/08 03:05:05;;;;;;;9.43;6.50;;;20.30;99.90;;;;;;5065013;28;20204;-60
2023/07/08 03:07:34;;;;;;;6.82;6.13;;;20.20;99.90;;;;;;5061425;28;20205;-60
2023/07/08 03:10:03;;;;;;;7.60;6.28;;;20.20;99.90;;;;;;5053119;28;20229;-60
2023/07/08 03:12:31;;;;;;;7.40;6.53;;;20.10;99.90;;;;;;5049773;28;20244;-60
2023/07/08 03:14:59;;;;;;;7.68;5.75;;;20.10;99.90;;;;;;5053210;28;20674;-59
2023/07/08 03:17:27;;;;;;;7.80;6.00;;;20.10;99.90;;;;;;5053874;28;20229;-61
2023/07/08 03:19:54;;;;;;;7.22;6.18;;;20.00;99.90;;;;;;5053594;28;20318;-61
2023/07/08 03:22:22;;;;;;;7.63;6.55;;;20.00;99.90;;;;;;5053536;28;20684;-61
2023/07/08 03:24:51;;;;;;;7.80;6.63;;;20.00;99.90;;;;;;5051648;28;20309;-60
2023/07/08 03:27:20;;;;;;;7.15;5.95;;;20.00;99.90;;;;;;5053217;28;20252;-60
2023/07/08 03:29:48;;;;;;;7.45;5.95;;;20.00;99.90;;;;;;5053551;28;20231;-60
2023/07/08 03:32:16;;;;;;;7.15;5.78;;;20.00;99.90;;;;;;5053150;28;20708;-60
2023/07/08 03:34:44;;;;;;;7.70;5.85;;;20.00;99.90;;;;;;5052885;28;20654;-59
2023/07/08 03:37:12;;;;;;;14.18;6.30;;;20.10;99.90;;;;;;5051968;28;20575;-60
2023/07/08 03:39:39;;;;;;;6.57;5.50;;;20.10;99.90;;;;;;5053135;28;20736;-59
2023/07/08 03:42:10;;;;;;;8.30;6.35;;;20.10;99.90;;;;;;5052891;28;20229;-60
2023/07/08 03:44:37;;;;;;;8.63;6.13;;;20.10;99.90;;;;;;5052790;28;20277;-60
2023/07/08 03:47:05;;;;;;;8.63;6.45;;;20.10;99.90;;;;;;5052076;28;20626;-60
2023/07/08 03:49:33;;;;;;;10.50;5.45;;;20.10;99.90;;;;;;5050115;28;20696;-61
2023/07/08 03:52:01;;;;;;;6.97;6.25;;;20.10;99.90;;;;;;5040360;28;20240;-60
2023/07/08 03:54:29;;;;;;;8.23;6.22;;;20.10;99.90;;;;;;5052641;28;20229;-60
2023/07/08 03:56:57;;;;;;;7.95;5.90;;;20.10;99.90;;;;;;5051158;28;20286;-60
2023/07/08 03:59:26;;;;;;;9.07;6.60;;;20.10;99.90;;;;;;5062678;28;20213;-60
2023/07/08 04:01:54;;;;;;;8.35;6.05;;;20.10;99.90;;;;;;5056742;28;20236;-60
2023/07/08 04:04:22;;;;;;;7.93;6.20;;;20.20;99.90;;;;;;5051791;28;20697;-60
2023/07/08 04:06:51;;;;;;;6.95;5.80;;;20.10;99.90;;;;;;5047437;28;20249;-59
2023/07/08 04:09:19;;;;;;;7.43;5.80;;;20.10;99.90;;;;;;5052702;28;20193;-60
2023/07/08 04:11:47;;;;;;;6.68;5.97;;;20.10;99.90;;;;;;5052677;28;20661;-60
2023/07/08 04:14:15;;;;;;;9.90;5.57;;;20.20;99.90;;;;;;5052650;28;20236;-59
2023/07/08 04:16:51;;;;;;;6.15;5.55;;;20.20;99.90;;;;;;5052166;28;20716;-59
2023/07/08 04:19:19;;;;;;;5.95;5.38;;;20.20;99.90;;;;;;5050405;28;20301;-59
2023/07/08 04:21:47;;;;;;;8.77;5.28;;;20.20;99.90;;;;;;5051595;28;20680;-60
2023/07/08 04:24:16;;;;;;;8.50;5.70;;;20.20;99.90;;;;;;5052465;28;20225;-59
2023/07/08 04:26:46;;;;;;;6.90;5.40;;;20.30;99.90;;;;;;5051955;28;20308;-60
2023/07/08 04:29:14;;;;;;;9.45;6.00;;;20.30;99.90;;;;;;5052213;28;20209;-59
2023/07/08 04:31:42;;;;;;;6.75;5.57;;;20.30;99.90;;;;;;5049835;28;20214;-60
2023/07/08 04:34:12;;;;;;;7.38;5.38;;;20.40;99.90;;;;;;5049033;28;20247;-60
2023/07/08 04:36:40;;;;;;;7.95;6.07;;;20.40;99.90;;;;;;5051552;28;20697;-59
2023/07/08 04:39:08;;;;;;;8.32;5.72;;;20.50;99.90;;;;;;5052265;28;20331;-61
2023/07/08 04:41:40;;;;;;;7.30;5.80;;;20.50;99.90;;;;;;5052071;28;20201;-60
2023/07/08 04:44:10;;;;;;;7.95;5.65;;;20.60;99.90;;;;;;5051859;28;20251;-60
2023/07/08 04:46:39;;;;;;;8.65;6.45;;;20.60;99.90;;;;;;5044158;28;20639;-60
2023/07/08 04:49:09;;;;;;;7.75;5.88;;;20.60;99.90;;;;;;5051469;28;20855;-60
2023/07/08 04:51:38;;;;;;;6.32;5.38;;;20.70;99.90;;;;;;5050895;28;20665;-60
2023/07/08 04:54:06;;;;;;;10.18;5.50;;;20.70;99.90;;;;;;5046388;28;20202;-60
2023/07/08 04:56:36;;;;;;;7.97;5.88;;;20.80;99.90;;;;;;5063017;28;20221;-60
2023/07/08 04:59:04;;;;;;;6.57;5.88;;;20.80;99.90;;;;;;5059725;28;20197;-60
2023/07/08 05:01:32;;;;;;;8.73;5.88;;;20.80;99.90;;;;;;5042535;28;20275;-60
2023/07/08 05:04:00;;;;;;;7.63;5.80;;;20.90;99.90;;;;;;5047729;28;20209;-60
2023/07/08 05:06:28;;;;;;;8.43;5.80;;;20.90;99.90;;;;;;5051270;28;20219;-59
2023/07/08 05:08:59;;;;;;;8.27;5.95;;;21.00;99.90;;;;;;5051316;28;20212;-59
2023/07/08 05:11:26;;;;;;;12.68;6.15;;;21.00;99.90;;;;;;5050734;28;20240;-60
2023/07/08 05:13:54;;;;;;;7.47;4.95;;;21.00;99.90;;;;;;5049057;28;20237;-58
2023/07/08 05:16:23;;;;;;;8.95;4.68;;;21.10;99.90;;;;;;5051106;28;20256;-56
2023/07/08 05:18:51;;;;;;;6.97;4.68;;;21.20;99.90;;;;;;5051521;28;20280;-56
2023/07/08 05:21:19;;;;;;;9.88;5.25;;;21.20;99.90;;;;;;5049324;28;20240;-57
2023/07/08 05:23:49;;;;;;;8.80;5.38;;;21.30;99.90;;;;;;5051237;28;20205;-58
2023/07/08 05:26:18;;;;;;;6.80;5.85;;;21.40;99.90;;;;;;5039203;28;20276;-56
2023/07/08 05:28:46;;;;;;;12.77;5.82;;;21.40;99.90;;;;;;5049757;28;20213;-58
2023/07/08 05:31:14;;;;;;;5.90;5.28;;;21.50;99.90;;;;;;5051069;28;20202;-57
2023/07/08 05:33:41;;;;;;;7.60;5.82;;;21.50;99.90;;;;;;5051464;28;20502;-58
2023/07/08 05:36:09;;;;;;;9.35;5.60;;;21.60;99.90;;;;;;5047269;28;20252;-58
2023/07/08 05:38:38;;;;;;;7.45;6.03;;;21.60;99.90;;;;;;5049310;28;20288;-58
2023/07/08 05:41:06;;;;;;;8.50;6.15;;;21.60;99.90;;;;;;5044815;28;20652;-57
2023/07/08 05:43:35;;;;;;;6.35;5.75;;;21.70;99.90;;;;;;5049500;28;20206;-58
2023/07/08 05:46:03;;;;;;;6.00;4.18;;;21.70;99.90;;;;;;5050718;28;20221;-55
2023/07/08 05:48:39;;;;;;;4.32;3.97;;;21.70;99.90;;;;;;5051099;28;20605;-55
2023/07/08 05:51:07;;;;;;;5.03;4.00;;;21.80;99.90;;;;;;5049589;28;20201;-56
2023/07/08 05:53:35;;;;;;;6.22;4.90;;;21.80;99.90;;;;;;5050141;28;20209;-55
2023/07/08 05:56:03;;;;;;;5.63;4.95;;;21.90;99.90;;;;;;5050158;28;20260;-55
2023/07/08 05:58:31;;;;;;;5.80;5.20;;;22.00;99.90;;;;;;5038696;28;20333;-55
2023/07/08 06:01:00;;;;;;;9.23;5.93;;;22.00;99.90;;;;;;5046761;28;20256;-57
2023/07/08 06:03:29;;;;;;;6.43;5.60;;;22.10;99.90;;;;;;5046414;28;20259;-57
2023/07/08 06:05:57;;;;;;;6.18;5.13;;;22.20;99.90;;;;;;5040051;28;20225;-56
2023/07/08 06:08:25;;;;;;;6.25;5.65;;;22.30;99.90;;;;;;5050203;28;20240;-56
2023/07/08 06:10:53;;;;;;;15.77;5.85;;;22.40;99.90;;;;;;5050821;28;20288;-56
2023/07/08 06:13:22;;;;;;;9.07;5.90;;;22.40;99.90;;;;;;5048246;28;20236;-57
2023/07/08 06:15:49;;;;;;;10.93;5.78;;;22.50;99.90;;;;;;5051254;28;20222;-55
2023/07/08 06:18:19;;;;;;;10.50;6.28;;;22.60;99.90;;;;;;5048865;28;20221;-56
2023/07/08 06:20:52;;;;;;;7.28;5.90;;;22.60;99.90;;;;;;5046332;28;20256;-56
2023/07/08 06:23:20;;;;;;;6.10;5.47;;;22.70;99.90;;;;;;5054583;28;20669;-57
2023/07/08 06:25:48;;;;;;;6.32;5.72;;;22.70;99.90;;;;;;5046073;28;20261;-56
2023/07/08 06:28:15;;;;;;;5.85;5.25;;;22.70;99.90;;;;;;5054890;28;20599;-57
2023/07/08 06:30:44;;;;;;;6.22;5.55;;;22.80;99.90;;;;;;5052701;28;20279;-57
2023/07/08 06:33:12;;;;;;;10.40;5.82;;;22.80;99.90;;;;;;5054853;28;20254;-57
2023/07/08 06:35:41;;;;;;;8.93;6.32;;;22.80;99.90;;;;;;5052621;28;20668;-57
2023/07/08 06:38:09;;;;;;;12.07;5.35;;;22.80;99.90;;;;;;5054206;28;20210;-58
2023/07/08 06:40:37;;;;;;;6.45;5.75;;;22.80;99.90;;;;;;5052200;28;20704;-57
2023/07/08 06:43:05;;;;;;;11.77;6.35;;;22.80;99.90;;;;;;5052108;28;20210;-57
2023/07/08 06:45:33;;;;;;;10.00;6.28;;;22.80;99.90;;;;;;5054133;28;20953;-57
2023/07/08 06:48:01;;;;;;;6.35;5.75;;;22.80;99.90;;;;;;5054662;28;20198;-57
2023/07/08 06:50:29;;;;;;;9.07;6.07;;;22.80;99.90;;;;;;5049983;28;20205;-57
2023/07/08 06:52:58;;;;;;;7.13;5.88;;;22.90;99.90;;;;;;5054730;28;20279;-57
2023/07/08 06:55:26;;;;;;;6.70;5.75;;;22.90;99.90;;;;;;5054233;28;20229;-57
2023/07/08 06:57:54;;;;;;;8.30;5.32;;;23.00;99.90;;;;;;5051276;28;20210;-57
2023/07/08 07:00:22;;;;;;;7.68;5.63;;;23.00;99.90;;;;;;5053042;28;20209;-57
2023/07/08 07:02:49;;;;;;;10.77;5.85;;;23.10;99.90;;;;;;5047140;28;20631;-56
2023/07/08 07:05:17;;;;;;;6.35;5.55;;;23.30;99.90;;;;;;5049347;28;20294;-57
2023/07/08 07:07:49;;;;;;;7.72;5.78;;;23.40;99.90;;;;;;5049359;28;20760;-58
2023/07/08 07:10:19;;;;;;;6.40;5.70;;;23.60;99.90;;;;;;5045552;28;20729;-57
2023/07/08 07:12:46;;;;;;;6.05;5.50;;;23.80;99.90;;;;;;5041177;28;20259;-57
2023/07/08 07:15:14;;;;;;;7.78;6.03;;;24.00;99.90;;;;;;5053087;28;20283;-57
2023/07/08 07:17:42;;;;;;;8.00;5.60;;;24.20;99.90;;;;;;5053546;28;20271;-57
2023/07/08 07:20:11;;;;;;;7.78;5.47;;;24.40;99.90;;;;;;5053370;28;20201;-56
2023/07/08 07:22:39;;;;;;;7.97;5.75;;;24.60;99.90;;;;;;5052657;28;20312;-57
2023/07/08 07:25:07;;;;;;;8.05;5.80;;;24.80;99.90;;;;;;5053706;28;20205;-57
2023/07/08 07:27:36;;;;;;;6.65;5.47;;;24.90;99.90;;;;;;5053897;28;20288;-59
2023/07/08 07:30:05;;;;;;;6.22;5.22;;;25.10;99.90;;;;;;5053367;28;20697;-58
2023/07/08 07:32:35;;;;;;;6.25;4.97;;;25.10;99.90;;;;;;5036700;28;20248;-59
2023/07/08 07:35:03;;;;;;;7.28;5.68;;;25.20;99.90;;;;;;5053615;28;20205;-58
2023/07/08 07:37:31;;;;;;;7.55;5.75;;;25.30;99.90;;;;;;5076614;22;20225;-56
2023/07/08 07:39:58;;;;;;;11.65;6.05;;;25.40;99.90;;;;;;5073608;28;20200;-59
2023/07/08 07:42:27;;;;;;;9.30;5.60;;;25.50;99.90;;;;;;5073324;28;20207;-56
2023/07/08 07:44:56;;;;;;;6.97;5.78;;;25.60;99.90;;;;;;5073140;28;20246;-57
2023/07/08 07:47:24;;;;;;;6.03;5.03;;;25.70;99.90;;;;;;5073259;28;20213;-55
2023/07/08 07:49:55;;;;;;;5.68;4.88;;;25.70;99.90;;;;;;5072998;28;20204;-57
2023/07/08 07:52:24;;;;;;;8.65;5.25;;;25.70;99.90;;;;;;5073216;28;20239;-58
2023/07/08 07:54:53;;;;;;;10.68;5.40;;;25.60;99.90;;;;;;5072634;28;20742;-57
2023/07/08 07:57:21;;;;;;;6.15;5.55;;;25.70;99.90;;;;;;5072841;28;20278;-58
2023/07/08 07:59:49;;;;;;;7.00;5.60;;;25.60;99.90;;;;;;5073045;28;20986;-56
2023/07/08 08:02:18;;;;;;;6.68;5.72;;;25.50;99.90;;;;;;5072820;28;20228;-57
2023/07/08 08:04:47;;;;;;;6.32;5.68;;;25.50;99.90;;;;;;5072528;28;20208;-56
2023/07/08 08:07:14;;;;;;;7.78;5.20;;;25.30;99.80;;;;;;5072786;28;20254;-57
2023/07/08 08:09:42;;;;;;;10.15;6.05;;;25.30;99.90;;;;;;5072928;28;20247;-55
2023/07/08 08:12:11;;;;;;;6.40;5.80;;;25.30;99.90;;;;;;5072581;28;20236;-55
2023/07/08 08:14:39;;;;;;;6.80;5.13;;;25.30;99.90;;;;;;5072535;28;20251;-55
2023/07/08 08:17:07;;;;;;;8.30;5.25;;;25.30;99.90;;;;;;5072550;28;20225;-57
2023/07/08 08:19:36;;;;;;;9.25;5.32;;;25.30;99.90;;;;;;5072743;28;20627;-57
2023/07/08 08:22:04;;;;;;;8.27;5.72;;;25.30;99.90;;;;;;5072494;28;20228;-58
2023/07/08 08:24:32;;;;;;;6.28;5.68;;;25.40;99.90;;;;;;5056269;28;20232;-57
2023/07/08 08:27:00;;;;;;;7.35;5.40;;;25.50;99.90;;;;;;5072242;28;20618;-58
2023/07/08 08:29:28;;;;;;;7.72;5.72;;;25.50;99.90;;;;;;5072180;28;20260;-56
2023/07/08 08:31:56;;;;;;;6.57;5.72;;;25.70;99.90;;;;;;5072169;28;20632;-55
2023/07/08 08:34:23;;;;;;;8.05;5.55;;;25.80;99.90;;;;;;5072084;28;20292;-57
2023/07/08 08:36:55;;;;;;;10.68;5.97;;;25.90;99.90;;;;;;5071748;28;20260;-57
2023/07/08 08:39:24;;;;;;;6.45;5.75;;;26.10;99.90;;;;;;5072388;28;20201;-55
2023/07/08 08:41:53;;;;;;;11.98;6.10;;;26.20;99.90;;;;;;5071876;28;20255;-57
2023/07/08 08:44:24;;;;;;;12.35;6.82;;;26.40;99.90;;;;;;5071838;28;20200;-58
2023/07/08 08:46:55;;;;;;;9.00;6.20;;;26.40;99.90;;;;;;5071717;28;20246;-56
2023/07/08 08:49:25;;;;;;;6.88;6.18;;;26.60;99.70;;;;;;5072233;28;20201;-58
2023/07/08 08:51:54;;;;;;;6.97;6.35;;;26.80;98.90;;;;;;5071990;28;20262;-57
2023/07/08 08:54:22;;;;;;;9.32;6.38;;;27.00;99.90;;;;;;5071813;28;20209;-57
2023/07/08 08:56:55;;;;;;;9.75;6.65;;;27.30;99.90;;;;;;5071368;28;20256;-56
2023/07/08 08:59:28;;;;;;;8.95;6.18;;;27.70;98.40;;;;;;5071653;28;20248;-57
2023/07/08 09:01:56;;;;;;;11.40;7.25;;;28.10;96.60;;;;;;5071842;28;20235;-57
2023/07/08 09:04:26;;;;;;;9.02;7.10;;;28.30;97.10;;;;;;5071640;28;20236;-57
2023/07/08 09:06:59;;;;;;;7.32;6.57;;;28.30;95.30;;;;;;5071359;28;20216;-58
2023/07/08 09:09:30;;;;;;;9.68;6.45;;;28.30;93.80;;;;;;5071754;28;20731;-56
2023/07/08 09:12:00;;;;;;;7.30;6.60;;;28.30;94.20;;;;;;5071640;28;20231;-56
2023/07/08 09:14:29;;;;;;;11.05;6.13;;;28.20;91.30;;;;;;5071545;28;20718;-56
2023/07/08 09:16:59;;;;;;;7.55;6.80;;;28.20;91.80;;;;;;5071371;28;20256;-56
2023/07/08 09:19:30;;;;;;;10.70;7.28;;;28.30;93.50;;;;;;5071436;28;20308;-57
2023/07/08 09:22:02;;;;;;;7.70;6.93;;;28.30;91.80;;;;;;5071659;28;20232;-56
2023/07/08 09:24:32;;;;;;;8.40;6.10;;;28.20;90.60;;;;;;5055060;28;20266;-60
2023/07/08 09:27:01;;;;;;;8.35;6.88;;;28.40;90.90;;;;;;5071056;28;20719;-57
2023/07/08 09:29:29;;;;;;;8.98;7.40;;;28.60;90.50;;;;;;5071570;28;20200;-57
2023/07/08 09:31:57;;;;;;;11.60;6.75;;;28.80;91.20;;;;;;5071373;28;20216;-57
2023/07/08 09:34:37;;;;;;;6.95;6.25;;;29.00;90.00;;;;;;5070486;28;20205;-57
2023/07/08 09:37:14;;;;;;;9.20;6.78;;;29.40;89.80;;;;;;5070661;28;20285;-57
2023/07/08 09:39:42;;;;;;;10.25;7.20;;;29.50;90.30;;;;;;5071315;28;20248;-58
2023/07/08 09:42:10;;;;;;;10.48;7.18;;;29.60;90.90;;;;;;5071090;28;20697;-58
2023/07/08 09:44:38;;;;;;;10.68;6.72;;;29.60;88.60;;;;;;5070935;28;20285;-56
2023/07/08 09:47:18;;;;;;;8.27;6.95;;;29.60;89.70;;;;;;5070560;28;20274;-57
2023/07/08 09:49:47;;;;;;;8.98;7.47;;;29.60;89.00;;;;;;5071227;28;20668;-58
2023/07/08 09:52:17;;;;;;;9.95;7.50;;;29.70;90.90;;;;;;5071065;28;20358;-57
2023/07/08 09:54:45;;;;;;;11.20;7.60;;;29.80;90.90;;;;;;5069010;28;20204;-60
2023/07/08 09:57:27;;;;;;;10.10;7.38;;;29.90;87.40;;;;;;5067332;28;20639;-57
2023/07/08 09:59:58;;;;;;;10.07;7.72;;;30.20;90.80;;;;;;5069772;28;20220;-59
2023/07/08 10:02:28;;;;;;;9.82;7.03;;;30.40;88.90;;;;;;5068762;28;20207;-57
2023/07/08 10:04:57;;;;;;;11.23;7.32;;;30.60;90.30;;;;;;5069399;28;20206;-57
2023/07/08 10:07:28;;;;;;;7.80;6.97;;;30.80;89.70;;;;;;5069275;28;20228;-59
2023/07/08 10:09:56;;;;;;;9.77;7.22;;;31.00;89.70;;;;;;5070334;28;20228;-57
2023/07/08 10:12:24;;;;;;;9.90;7.03;;;31.20;87.70;;;;;;5071005;28;20305;-57
2023/07/08 10:14:54;;;;;;;12.10;7.68;;;31.40;90.10;;;;;;5070941;28;20212;-57
2023/07/08 10:17:22;;;;;;;11.75;6.97;;;31.20;86.70;;;;;;5070988;28;20248;-57
2023/07/08 10:19:50;;;;;;;12.23;7.60;;;31.00;85.90;;;;;;5070702;28;20212;-56
2023/07/08 10:22:30;;;;;;;8.95;7.60;;;31.00;86.20;;;;;;5069802;28;20201;-58
2023/07/08 10:25:16;;;;;;;9.73;6.88;;;30.90;86.10;;;;;;5070369;28;20725;-57
2023/07/08 10:27:48;;;;;;;12.10;7.63;;;30.90;87.20;;;;;;5070611;28;20228;-58
2023/07/08 10:30:20;;;;;;;9.45;7.13;;;30.90;87.10;;;;;;5069791;28;20664;-59
2023/07/08 10:33:15;;;;;;;8.90;6.82;;;30.90;86.40;;;;;;5070567;28;20201;-57
2023/07/08 10:35:46;;;;;;;7.63;6.63;;;30.90;86.80;;;;;;5070287;28;20651;-56
2023/07/08 10:38:29;;;;;;;11.98;7.28;;;30.80;87.40;;;;;;5070675;28;20274;-58
2023/07/08 10:40:59;;;;;;;14.45;7.00;;;30.90;89.40;;;;;;5070494;28;20244;-57
2023/07/08 10:43:36;;;;;;;12.65;7.10;;;31.30;91.10;;;;;;5070900;28;20212;-57
2023/07/08 10:46:11;;;;;;;8.27;6.72;;;31.70;86.20;;;;;;5070301;28;20303;-58
2023/07/08 10:48:50;;;;;;;12.00;6.70;;;32.00;85.80;;;;;;5055482;28;20715;-57
2023/07/08 10:51:21;;;;;;;12.45;7.68;;;32.40;88.00;;;;;;5069714;28;20283;-57
2023/07/08 10:54:03;;;;;;;12.60;6.80;;;32.70;85.40;;;;;;5070607;28;20235;-56
2023/07/08 10:56:36;;;;;;;12.30;7.07;;;33.00;82.50;;;;;;5053668;28;20259;-59
2023/07/08 10:59:18;;;;;;;11.35;6.68;;;33.20;82.30;;;;;;5074080;28;20270;-57
2023/07/08 11:02:02;;;;;;;12.07;7.35;;;33.50;84.00;;;;;;5074236;28;20635;-59
2023/07/08 11:04:51;;;;;;;10.23;6.60;;;33.70;81.10;;;;;;5057847;28;20236;-59
2023/07/08 11:07:28;;;;;;;10.07;7.50;;;33.90;84.70;;;;;;5074111;28;20256;-59
2023/07/08 11:09:59;;;;;;;12.65;6.57;;;34.10;80.60;;;;;;5074001;28;20219;-59
2023/07/08 11:12:28;;;;;;;10.57;6.95;;;34.30;83.30;;;;;;5074302;28;20220;-58
2023/07/08 11:15:00;;;;;;;7.82;6.93;;;34.40;80.50;;;;;;5073887;28;20224;-58
2023/07/08 11:17:30;;;;;;;8.95;6.35;;;34.60;81.20;;;;;;5073089;28;20649;-58
2023/07/08 11:20:00;;;;;;;11.48;6.13;;;34.60;76.70;;;;;;5073296;28;20274;-58
2023/07/08 11:22:28;;;;;;;9.18;6.50;;;34.70;76.10;;;;;;5072194;28;20201;-57
2023/07/08 11:24:57;;;;;;;16.58;7.38;;;34.90;78.70;;;;;;5073937;28;20233;-59
2023/07/08 11:27:27;;;;;;;9.07;6.57;;;35.10;76.50;;;;;;5073706;28;20308;-58
2023/07/08 11:29:56;;;;;;;13.68;6.63;;;35.30;74.10;;;;;;5073833;28;20197;-60
2023/07/08 11:32:27;;;;;;;7.35;6.22;;;35.40;77.40;;;;;;5073703;28;20292;-59
2023/07/08 11:34:55;;;;;;;6.85;6.22;;;35.40;73.40;;;;;;5073221;28;20212;-59
2023/07/08 11:37:22;;;;;;;12.05;6.72;;;35.40;72.00;;;;;;5073020;28;20316;-58
2023/07/08 11:39:59;;;;;;;7.80;6.40;;;35.50;76.60;;;;;;5073107;28;20299;-59
2023/07/08 11:42:32;;;;;;;12.23;6.93;;;35.50;72.00;;;;;;5073188;28;20228;-57
2023/07/08 11:45:00;;;;;;;9.30;6.38;;;35.70;74.70;;;;;;5072077;28;20441;-59
2023/07/08 11:47:34;;;;;;;10.88;6.82;;;35.90;74.10;;;;;;5073149;28;20256;-60
2023/07/08 11:50:02;;;;;;;11.15;6.50;;;36.00;71.90;;;;;;5073519;28;20197;-58
2023/07/08 11:52:30;;;;;;;10.70;6.38;;;36.20;74.30;;;;;;5056884;28;20718;-58
2023/07/08 11:55:03;;;;;;;6.57;5.88;;;36.40;74.00;;;;;;5073098;28;20643;-58
2023/07/08 11:57:31;;;;;;;8.35;6.65;;;36.40;70.30;;;;;;5073202;28;20221;-60
2023/07/08 12:00:22;;;;;;;8.68;6.78;;;36.60;75.00;;;;;;5072527;28;20304;-59
2023/07/08 12:02:53;;;;;;;10.60;6.47;;;36.80;68.70;;;;;;5056300;28;20216;-61
2023/07/08 12:05:31;;;;;;;10.52;6.85;;;36.90;69.40;;;;;;5072574;28;20205;-59
2023/07/08 12:08:00;;;;;;;9.50;5.75;;;37.10;67.20;;;;;;5072663;28;20308;-58
2023/07/08 12:10:35;;;;;;;9.82;5.78;;;37.20;69.50;;;;;;5072013;28;20189;-59
2023/07/08 12:13:03;;;;;;;9.40;5.70;;;37.40;68.60;;;;;;5071595;28;20204;-58
2023/07/08 12:15:33;;;;;;;8.90;5.90;;;37.50;67.10;;;;;;5072436;28;20209;-57
2023/07/08 12:18:02;;;;;;;8.27;6.32;;;37.60;71.60;;;;;;5072289;28;20293;-60
2023/07/08 12:20:32;;;;;;;7.10;5.70;;;37.70;66.90;;;;;;5055908;28;20225;-60
2023/07/08 12:23:00;;;;;;;8.10;5.65;;;37.60;66.90;;;;;;5072252;28;20632;-59
2023/07/08 12:25:32;;;;;;;8.77;6.10;;;37.80;64.20;;;;;;5072732;28;20729;-60
2023/07/08 12:28:01;;;;;;;7.53;6.32;;;37.90;64.60;;;;;;5070137;28;20698;-60
2023/07/08 12:30:30;;;;;;;8.18;6.05;;;38.20;65.50;;;;;;5072105;28;20553;-59
2023/07/08 12:32:59;;;;;;;12.57;6.00;;;38.40;63.60;;;;;;5072385;28;20201;-60
2023/07/08 12:35:28;;;;;;;11.38;5.75;;;38.50;64.00;;;;;;5071772;28;20251;-57
2023/07/08 12:37:59;;;;;;;6.80;5.78;;;38.40;62.90;;;;;;5071616;28;20247;-57
2023/07/08 12:40:29;;;;;;;12.82;5.57;;;38.60;64.20;;;;;;5072149;28;20252;-57
2023/07/08 12:42:59;;;;;;;8.63;5.95;;;38.70;64.50;;;;;;5071873;28;20200;-58
2023/07/08 12:45:28;;;;;;;11.13;6.00;;;38.80;62.60;;;;;;5070534;28;20746;-57
2023/07/08 12:47:56;;;;;;;12.35;5.82;;;38.80;62.10;;;;;;5071584;28;20248;-58
2023/07/08 12:50:24;;;;;;;7.63;5.65;;;39.00;61.50;;;;;;5072068;28;20295;-58
2023/07/08 12:52:52;;;;;;;13.52;5.82;;;39.10;64.30;;;;;;5071565;28;20205;-58
2023/07/08 12:55:20;;;;;;;5.65;4.90;;;39.30;61.90;;;;;;5061260;28;20239;-58